Latest Weather Observations for Julia Creek

IDQ60801

Issued at 10:51 pm EST Sunday 21 July 2019 (issued every 10 minutes, with the page automatically refreshed every 10 minutes)

About weather observations | Map of weather stations | Latest weather observations for QLD | Other Formats
Station Details ID: 029058 Name: JULIA CREEK AIRPORT Lat: -20.67 Lon: 141.72 Height: 122.5 m
Data from the previous 72 hours. | See also: Recent months at Julia Creek
Date/Time
EST
Temp
°C
App
Temp
°C
Dew
Point
°C
Rel
Hum
%
Delta-T
°C
Wind Press
QNH
hPa
Press
MSL
hPa
Rain since
9am
mm
Dir  Spd
km/h
Gust
km/h
Spd
kts
Gust
kts
21/10:30pm 12.7 8.5 -3.5 32 6.2 ESE 9 11 5 6 1015.7 1015.4 0.0
21/10:00pm 13.3 8.3 -4.3 29 6.7 ESE 13 15 7 8 1015.7 1015.4 0.0
21/09:30pm 14.6 9.7 -3.7 28 7.1 ESE 13 13 7 7 1015.5 1015.2 0.0
21/09:00pm 13.9 8.8 -4.8 27 7.1 SSE 13 17 7 9 1015.6 1015.3 0.0
21/08:30pm 14.9 9.1 -4.4 26 7.4 S 17 19 9 10 1015.3 1015.0 0.0
21/08:00pm 15.9 10.2 -4.1 25 7.8 S 17 19 9 10 1015.0 1014.7 0.0
21/07:30pm 16.9 10.8 -4.3 23 8.4 SSW 19 20 10 11 1014.7 1014.4 0.0
21/07:00pm 18.7 13.0 -3.4 22 9.1 SSW 17 19 9 10 1014.3 1014.0 0.0
21/06:30pm 21.1 16.2 -3.4 19 10.3 WSW 13 13 7 7 1014.0 1013.7 0.0
21/06:00pm 24.8 20.7 -2.7 16 12.1 W 9 11 5 6 1013.6 1013.4 0.0
21/05:30pm 27.5 24.1 -2.3 14 13.5 W 6 9 3 5 1013.4 1013.2 0.0
21/05:00pm 27.6 24.0 -2.3 14 13.5 WSW 7 15 4 8 1013.3 1013.1 0.0
21/04:30pm 28.0 23.5 -3.0 13 13.9 WSW 11 17 6 9 1013.1 1012.9 0.0
21/04:00pm 27.7 24.0 -3.2 13 13.8 WSW 7 11 4 6 1013.1 1012.9 0.0
21/03:30pm 27.9 23.6 -2.0 14 13.6 WNW 11 17 6 9 1013.2 1013.0 0.0
21/03:00pm 28.0 23.9 -0.1 16 13.3 NW 11 15 6 8 1013.6 1013.4 0.0
21/02:30pm 27.8 24.1 -0.3 16 13.2 NNW 9 17 5 9 1014.0 1013.7 0.0
21/02:00pm 27.0 22.9 -0.1 17 12.7 WNW 11 17 6 9 1014.2 1013.9 0.0
21/01:30pm 26.3 21.9 0.1 18 12.3 NW 13 20 7 11 1014.8 1014.5 0.0
21/01:00pm 26.4 22.5 0.9 19 12.1 NNW 11 20 6 11 1015.5 1015.2 0.0
21/12:30pm 27.2 23.2 3.0 21 12.0 W 13 20 7 11 1016.2 1015.9 0.0
21/12:00pm 25.8 21.2 1.8 21 11.5 NNW 15 20 8 11 1016.7 1016.4 0.0
21/11:30am 24.9 20.8 4.1 26 10.4 NW 15 24 8 13 1017.2 1016.9 0.0
21/11:00am 23.9 19.1 4.8 29 9.6 NNW 19 24 10 13 1017.7 1017.4 0.0
21/10:30am 22.4 17.6 4.9 32 8.7 N 19 24 10 13 1017.8 1017.5 0.0
21/10:00am 19.8 15.3 4.3 36 7.5 N 17 20 9 11 1017.8 1017.5 0.0
21/09:30am 18.0 13.6 4.6 41 6.4 NNE 17 22 9 12 1018.0 1017.7 0.0
21/09:00am 14.7 11.0 2.3 43 5.5 NNE 11 15 6 8 1017.9 1017.6 0.0
21/08:30am 12.0 9.0 0.8 46 4.7 E 6 9 3 5 1017.8 1017.5 0.0
21/08:00am 8.2 4.8 -0.5 54 3.4 E 7 7 4 4 1017.6 1017.3 0.0
21/07:30am 5.3 1.4 -1.8 60 2.6 E 9 11 5 6 1017.1 1016.8 0.0
21/07:00am 4.7 -0.1 -2.4 60 2.5 E 13 15 7 8 1016.7 1016.4 0.0
21/06:30am 5.2 0.1 -2.1 59 2.7 E 15 17 8 9 1016.4 1016.1 0.0
21/06:00am 5.3 0.1 -2.5 57 2.8 E 15 17 8 9 1016.4 1016.1 0.0
21/05:30am 5.4 0.2 -2.7 56 2.9 ESE 15 17 8 9 1016.3 1016.0 0.0
21/05:00am 6.0 1.2 -2.6 54 3.1 ESE 13 15 7 8 1016.5 1016.2 0.0
21/04:30am 6.4 2.0 -2.5 53 3.3 ESE 11 13 6 7 1016.2 1015.9 0.0
21/04:00am 6.4 1.5 -3.0 51 3.4 ESE 13 17 7 9 1015.9 1015.6 0.0
21/03:30am 6.7 1.5 -3.0 50 3.5 ESE 15 17 8 9 1016.0 1015.7 0.0
21/03:00am 6.6 1.6 -4.2 46 3.8 E 13 13 7 7 1016.0 1015.7 0.0
21/02:30am 7.8 2.0 -4.3 42 4.3 E 17 19 9 10 1015.9 1015.6 0.0
21/02:00am 7.3 1.5 -4.7 42 4.2 ESE 17 19 9 10 1016.2 1015.9 0.0
21/01:30am 8.1 2.6 -5.0 39 4.6 ESE 15 17 8 9 1016.7 1016.4 0.0
21/01:00am 9.4 3.5 -5.3 35 5.2 ESE 17 20 9 11 1016.7 1016.4 0.0
21/12:30am 10.3 4.4 -5.2 33 5.6 ESE 17 19 9 10 1016.7 1016.4 0.0
21/12:00am 10.2 4.3 -5.7 32 5.6 ESE 17 19 9 10 1016.8 1016.5 0.0
 
Date/Time
EST
Temp
°C
App
Temp
°C
Dew
Point
°C
Rel
Hum
%
Delta-T
°C
Wind Press
QNH
hPa
Press
MSL
hPa
Rain since
9am
mm
Dir  Spd
km/h
Gust
km/h
Spd
kts
Gust
kts
20/11:30pm 11.1 5.6 -5.4 31 6.0 ESE 15 17 8 9 1016.9 1016.6 0.0
20/11:00pm 10.8 5.3 -5.6 31 5.9 SE 15 17 8 9 1017.0 1016.7 0.0
20/10:30pm 11.7 6.2 -5.7 29 6.3 SE 15 17 8 9 1017.1 1016.8 0.0
20/10:00pm 11.9 6.7 -6.5 27 6.5 SE 13 15 7 8 1017.2 1016.9 0.0
20/09:30pm 13.1 7.5 -6.5 25 7.1 SE 15 17 8 9 1017.0 1016.7 0.0
20/09:00pm 13.9 8.3 -6.3 24 7.4 SE 15 17 8 9 1016.9 1016.6 0.0
20/08:30pm 15.1 9.5 -6.4 22 8.0 ESE 15 17 8 9 1016.7 1016.4 0.0
20/08:00pm 16.6 11.4 -6.4 20 8.6 SE 13 13 7 7 1016.4 1016.1 0.0
20/07:30pm 17.1 11.8 -7.4 18 9.1 SE 13 17 7 9 1016.2 1015.9 0.0
20/07:00pm 19.5 15.4 -7.0 16 10.2 ESE 7 9 4 5 1016.0 1015.7 0.0
20/06:30pm 21.6 17.4 -8.0 13 11.4 ESE 7 9 4 5 1015.7 1015.4 0.0
20/06:00pm 23.4 18.7 -8.7 11 12.4 ESE 9 11 5 6 1015.5 1015.2 0.0
20/05:30pm 25.7 21.0 -9.5 9 13.7 ESE 9 13 5 7 1015.4 1015.1 0.0
20/05:00pm 26.8 22.1 -8.7 9 14.2 SE 9 13 5 7 1015.2 1014.9 0.0
20/04:30pm 27.2 21.8 -8.4 9 14.4 E 13 20 7 11 1015.2 1014.9 0.0
20/04:00pm 27.7 23.0 -9.5 8 14.8 ENE 9 17 5 9 1015.2 1014.9 0.0
20/03:30pm 27.7 22.7 -8.0 9 14.6 ESE 11 20 6 11 1015.3 1015.0 0.0
20/03:00pm 27.4 21.6 -8.2 9 14.5 ESE 15 22 8 12 1015.4 1015.1 0.0
20/02:30pm 27.4 22.6 -5.6 11 14.1 ESE 11 20 6 11 1015.8 1015.5 0.0
20/02:00pm 26.5 21.4 -5.2 12 13.5 NE 13 17 7 9 1016.2 1015.9 0.0
20/01:30pm 26.2 21.1 -5.4 12 13.4 ESE 13 22 7 12 1016.9 1016.6 0.0
20/01:00pm 26.4 21.5 -3.2 14 13.0 ESE 13 22 7 12 1017.5 1017.2 0.0
20/12:30pm 25.4 19.8 -3.1 15 12.5 E 17 22 9 12 1017.9 1017.6 0.0
20/12:00pm 25.0 19.4 -2.5 16 12.1 ENE 17 26 9 14 1018.5 1018.3 0.0
20/11:30am 24.4 18.6 -1.4 18 11.6 E 19 26 10 14 1018.8 1018.6 0.0
20/11:00am 23.4 17.7 -0.8 20 10.9 E 19 26 10 14 1019.3 1019.1 0.0
20/10:30am 21.8 15.5 -0.8 22 10.0 E 22 32 12 17 1019.6 1019.4 0.0
20/10:00am 20.2 13.9 -1.0 24 9.2 E 22 28 12 15 1019.8 1019.6 0.0
20/09:30am 18.3 12.4 -0.5 28 8.1 E 20 32 11 17 1019.7 1019.5 0.0
20/09:00am 15.2 9.9 -0.9 33 6.7 ESE 17 20 9 11 1019.6 1019.4 0.0
20/08:30am 11.9 6.5 -1.3 40 5.3 ESE 17 20 9 11 1019.4 1019.2 0.0
20/08:00am 8.7 3.9 -2.3 46 4.1 ESE 13 17 7 9 1019.2 1019.0 0.0
20/07:30am 6.3 1.1 -2.8 52 3.3 ESE 15 17 8 9 1019.0 1018.8 0.0
20/07:00am 5.7 0.1 -3.1 53 3.1 ESE 17 17 9 9 1018.7 1018.5 0.0
20/06:30am 6.6 1.4 -2.8 51 3.4 ESE 15 17 8 9 1018.4 1018.2 0.0
20/06:00am 7.4 1.8 -2.9 48 3.8 ESE 17 19 9 10 1018.2 1018.0 0.0
20/05:30am 7.4 2.2 -2.9 48 3.8 SE 15 17 8 9 1018.0 1017.7 0.0
20/05:00am 7.2 1.6 -3.1 48 3.7 SE 17 19 9 10 1017.8 1017.5 0.0
20/04:30am 7.5 1.8 -3.4 46 4.0 SE 17 20 9 11 1017.6 1017.3 0.0
20/04:00am 7.7 2.0 -3.5 45 4.0 SE 17 20 9 11 1017.6 1017.3 0.0
20/03:30am 7.7 2.4 -3.5 45 4.1 SE 15 19 8 10 1017.7 1017.4 0.0
20/03:00am 7.5 2.2 -3.6 45 4.0 SSE 15 17 8 9 1017.8 1017.5 0.0
20/02:30am 7.8 2.5 -3.7 44 4.2 SSE 15 17 8 9 1018.0 1017.7 0.0
20/02:00am 8.4 3.1 -3.7 42 4.4 SSE 15 19 8 10 1018.1 1017.9 0.0
20/01:30am 8.5 2.4 -3.7 42 4.4 S 19 22 10 12 1018.4 1018.2 0.0
20/01:00am 8.2 2.5 -3.6 43 4.3 SSE 17 19 9 10 1018.2 1018.0 0.0
20/12:30am 7.7 2.3 -4.1 43 4.2 SSE 15 17 8 9 1018.3 1018.1 0.0
20/12:00am 8.3 3.3 -4.2 41 4.5 SSE 13 17 7 9 1018.2 1018.0 0.0
 
Date/Time
EST
Temp
°C
App
Temp
°C
Dew
Point
°C
Rel
Hum
%
Delta-T
°C
Wind Press
QNH
hPa
Press
MSL
hPa
Rain since
9am
mm
Dir  Spd
km/h
Gust
km/h
Spd
kts
Gust
kts
19/11:30pm 9.3 3.6 -3.9 39 4.8 SSE 17 17 9 9 1018.3 1018.1 0.0
19/11:00pm 10.2 4.9 -3.8 37 5.2 SSE 15 17 8 9 1018.4 1018.2 0.0
19/10:30pm 9.9 4.5 -4.4 36 5.2 SSE 15 17 8 9 1018.3 1018.1 0.0
19/10:00pm 10.4 4.6 -4.4 35 5.4 SSE 17 17 9 9 1018.0 1017.7 0.0
19/09:30pm 10.7 5.3 -4.9 33 5.7 SSE 15 15 8 8 1017.9 1017.6 0.0
19/09:00pm 11.1 5.6 -5.4 31 5.9 SSE 15 17 8 9 1017.8 1017.5 0.0
19/08:30pm 12.8 7.4 -4.8 29 6.6 SE 15 17 8 9 1017.6 1017.3 0.0
19/08:00pm 14.9 9.1 -4.9 25 7.5 SE 17 19 9 10 1017.3 1017.0 0.0
19/07:30pm 16.4 10.2 -4.8 23 8.2 SE 19 20 10 11 1017.1 1016.8 0.0
19/07:00pm 16.2 9.9 -6.1 21 8.4 SE 19 20 10 11 1016.8 1016.5 0.0
19/06:30pm 17.7 11.3 -6.9 18 9.3 SE 19 20 10 11 1016.7 1016.4 0.0
19/06:00pm 21.7 16.1 -6.9 14 11.2 SE 15 17 8 9 1016.5 1016.2 0.0
19/05:30pm 24.7 18.0 -7.7 11 12.9 SE 20 24 11 13 1016.4 1016.1 0.0
19/05:00pm 25.7 18.9 -9.5 9 13.7 SE 20 28 11 15 1016.3 1016.0 0.0
19/04:30pm 25.9 19.2 -8.0 10 13.6 SSE 20 30 11 16 1016.2 1015.9 0.0
19/04:00pm 26.1 19.9 -9.2 9 13.9 SE 17 24 9 13 1016.1 1015.8 0.0
19/03:30pm 26.0 20.3 -7.9 10 13.7 SSE 15 24 8 13 1016.3 1016.0 0.0
19/03:00pm 26.0 19.5 -7.9 10 13.6 SSE 19 26 10 14 1016.4 1016.1 0.0
19/02:30pm 26.0 20.8 -6.7 11 13.5 SE 13 22 7 12 1016.5 1016.2 0.0
19/02:00pm 25.6 19.6 -7.0 11 13.3 ESE 17 30 9 16 1016.9 1016.6 0.0
19/01:30pm 25.4 19.3 -7.2 11 13.2 SE 17 26 9 14 1017.3 1017.0 0.0
19/01:00pm 24.9 18.5 -6.4 12 12.8 ESE 19 32 10 17 1017.7 1017.4 0.0
19/12:30pm 23.8 16.9 -6.2 13 12.2 ESE 22 32 12 17 1018.4 1018.2 0.0
19/12:00pm 24.1 17.0 -4.1 15 12.0 ESE 24 30 13 16 1019.2 1019.0 0.0
19/11:30am 22.5 14.7 -3.7 17 11.1 ESE 28 33 15 18 1019.7 1019.5 0.0
19/11:00am 22.2 15.4 -1.8 20 10.5 ESE 24 32 13 17 1020.4 1020.2 0.0
19/10:30am 20.1 13.3 -1.7 23 9.4 ESE 24 30 13 16 1020.9 1020.7 0.0
19/10:00am 17.9 11.1 -1.9 26 8.3 ESE 24 30 13 16 1020.9 1020.7 0.0
19/09:30am 15.5 8.7 -2.0 30 7.2 SE 24 32 13 17 1021.2 1021.0 0.0
19/09:00am 12.7 5.8 -2.7 34 6.0 ESE 24 32 13 17 1020.7 1020.5 0.0
19/08:30am 10.7 4.6 -2.7 39 5.1 SE 20 26 11 14 1020.3 1020.1 0.0
19/08:00am 8.0 2.4 -2.6 47 3.9 SE 17 20 9 11 1020.4 1020.2 0.0
19/07:30am 4.5 -0.4 -3.7 55 2.8 SE 13 15 7 8 1020.2 1020.0 0.0
19/07:00am 3.7 -0.9 -4.5 55 2.7 E 11 13 6 7 1019.8 1019.6 0.0
19/06:30am 5.2 -0.1 -3.8 52 3.1 SE 15 19 8 10 1019.5 1019.3 0.0
19/06:00am 5.7 0.0 -3.9 50 3.3 SSE 17 19 9 10 1019.3 1019.1 0.0
19/05:30am 7.1 1.4 -3.7 46 3.9 SE 17 20 9 11 1019.1 1018.9 0.0
19/05:00am 7.4 1.7 -4.0 44 4.1 SE 17 22 9 12 1019.1 1018.9 0.0
19/04:30am 7.8 1.5 -3.7 44 4.2 SE 20 24 11 13 1018.8 1018.6 0.0
19/04:00am 8.0 1.9 -3.5 44 4.2 SE 19 22 10 12 1018.8 1018.6 0.0
19/03:30am 7.1 1.4 -4.0 45 3.9 SE 17 19 9 10 1019.0 1018.8 0.0
19/03:00am 7.6 1.8 -4.2 43 4.2 SSE 17 19 9 10 1019.0 1018.8 0.0
19/02:30am 8.4 3.0 -4.4 40 4.6 SE 15 17 8 9 1019.0 1018.8 0.0
19/02:00am 9.7 3.9 -4.3 37 5.1 SSE 17 20 9 11 1018.9 1018.7 0.0
19/01:30am 10.3 4.1 -4.9 34 5.5 SE 19 22 10 12 1018.9 1018.7 0.0
19/01:00am 11.2 4.8 -4.9 32 5.9 SE 20 26 11 14 1018.8 1018.6 0.0
19/12:30am 12.4 5.7 -4.2 31 6.3 SE 22 30 12 16 1018.9 1018.7 0.0
19/12:00am 9.7 3.8 -5.4 34 5.3 SE 17 20 9 11 1019.1 1018.9 0.0
 
Date/Time
EST
Temp
°C
App
Temp
°C
Dew
Point
°C
Rel
Hum
%
Delta-T
°C
Wind Press
QNH
hPa
Press
MSL
hPa
Rain since
9am
mm
Dir  Spd
km/h
Gust
km/h
Spd
kts
Gust
kts
18/11:30pm 11.1 4.7 -5.4 31 6.0 SSE 20 22 11 12 1018.9 1018.7 0.0
18/11:00pm 11.7 5.8 -5.7 29 6.3 SE 17 20 9 11 1018.8 1018.6 0.0

Other formats

Comma delimited format used in spreadsheet applications
http://www.bom.gov.au/fwo/IDQ60801/IDQ60801.94337.axf

JavaScript Object Notation format (JSON) in row-major order
http://www.bom.gov.au/fwo/IDQ60801/IDQ60801.94337.json

Data quality

Most of these data are generated automatically and are frequently updated. Quality checks on data are not normally performed. It is possible for incorrect values to appear. Refer to information at About Latest Weather Observations and please check the disclaimer before using these data.